sensor_id;sensor_type;location;lat;lon;timestamp;temperature;humidity
13245;DHT22;6689;53.400;12.486;2022-10-13T00:00:02;8.10;99.90
13245;DHT22;6689;53.400;12.486;2022-10-13T00:02:34;8.10;99.90
13245;DHT22;6689;53.400;12.486;2022-10-13T00:05:04;8.10;99.90
13245;DHT22;6689;53.400;12.486;2022-10-13T00:07:44;8.10;99.90
13245;DHT22;6689;53.400;12.486;2022-10-13T00:10:28;8.10;99.90
13245;DHT22;6689;53.400;12.486;2022-10-13T00:13:03;8.00;99.90
13245;DHT22;6689;53.400;12.486;2022-10-13T00:15:45;8.00;99.90
13245;DHT22;6689;53.400;12.486;2022-10-13T00:18:13;7.90;99.90
13245;DHT22;6689;53.400;12.486;2022-10-13T00:20:48;7.90;99.90
13245;DHT22;6689;53.400;12.486;2022-10-13T00:23:23;7.90;99.90
13245;DHT22;6689;53.400;12.486;2022-10-13T00:25:53;7.90;99.90
13245;DHT22;6689;53.400;12.486;2022-10-13T00:28:23;7.90;99.90
13245;DHT22;6689;53.400;12.486;2022-10-13T00:31:13;7.90;99.90
13245;DHT22;6689;53.400;12.486;2022-10-13T00:33:41;7.80;99.90
13245;DHT22;6689;53.400;12.486;2022-10-13T00:39:13;7.80;99.90
13245;DHT22;6689;53.400;12.486;2022-10-13T00:41:43;7.80;99.90
13245;DHT22;6689;53.400;12.486;2022-10-13T00:47:04;7.80;99.90
13245;DHT22;6689;53.400;12.486;2022-10-13T00:49:37;7.80;99.90
13245;DHT22;6689;53.400;12.486;2022-10-13T00:52:08;7.80;99.90
13245;DHT22;6689;53.400;12.486;2022-10-13T00:54:58;7.70;99.90
13245;DHT22;6689;53.400;12.486;2022-10-13T00:57:28;7.70;99.90
13245;DHT22;6689;53.400;12.486;2022-10-13T01:00:09;7.70;99.90
13245;DHT22;6689;53.400;12.486;2022-10-13T01:02:38;7.70;99.90
13245;DHT22;6689;53.400;12.486;2022-10-13T01:05:13;7.70;99.90
13245;DHT22;6689;53.400;12.486;2022-10-13T01:07:43;7.70;99.90
13245;DHT22;6689;53.400;12.486;2022-10-13T01:13:08;7.70;99.90
13245;DHT22;6689;53.400;12.486;2022-10-13T01:15:39;7.70;99.90
13245;DHT22;6689;53.400;12.486;2022-10-13T01:18:15;7.70;99.90
13245;DHT22;6689;53.400;12.486;2022-10-13T01:21:09;7.70;99.90
13245;DHT22;6689;53.400;12.486;2022-10-13T01:23:52;7.70;99.90
13245;DHT22;6689;53.400;12.486;2022-10-13T01:26:33;7.60;99.90
13245;DHT22;6689;53.400;12.486;2022-10-13T01:29:26;7.60;99.90
13245;DHT22;6689;53.400;12.486;2022-10-13T01:32:09;7.60;99.90
13245;DHT22;6689;53.400;12.486;2022-10-13T01:34:51;7.60;99.90
13245;DHT22;6689;53.400;12.486;2022-10-13T01:37:33;7.50;99.90
13245;DHT22;6689;53.400;12.486;2022-10-13T01:40:08;7.50;99.90
13245;DHT22;6689;53.400;12.486;2022-10-13T01:42:40;7.50;99.90
13245;DHT22;6689;53.400;12.486;2022-10-13T01:45:25;7.50;99.90
13245;DHT22;6689;53.400;12.486;2022-10-13T01:53:39;7.50;99.90
13245;DHT22;6689;53.400;12.486;2022-10-13T01:56:09;7.50;99.90
13245;DHT22;6689;53.400;12.486;2022-10-13T01:58:40;7.40;99.90
13245;DHT22;6689;53.400;12.486;2022-10-13T02:01:13;7.40;99.90
13245;DHT22;6689;53.400;12.486;2022-10-13T02:03:47;7.40;99.90
13245;DHT22;6689;53.400;12.486;2022-10-13T02:06:33;7.40;99.90
13245;DHT22;6689;53.400;12.486;2022-10-13T02:09:17;7.40;99.90
13245;DHT22;6689;53.400;12.486;2022-10-13T02:11:55;7.50;99.90
13245;DHT22;6689;53.400;12.486;2022-10-13T02:14:25;7.50;99.90
13245;DHT22;6689;53.400;12.486;2022-10-13T02:16:55;7.50;99.90
13245;DHT22;6689;53.400;12.486;2022-10-13T02:19:24;7.50;99.90
13245;DHT22;6689;53.400;12.486;2022-10-13T02:22:06;7.50;99.90
13245;DHT22;6689;53.400;12.486;2022-10-13T02:24:44;7.50;99.90
13245;DHT22;6689;53.400;12.486;2022-10-13T02:27:25;7.60;99.90
13245;DHT22;6689;53.400;12.486;2022-10-13T02:30:07;7.60;99.90
13245;DHT22;6689;53.400;12.486;2022-10-13T02:32:35;7.60;99.90
13245;DHT22;6689;53.400;12.486;2022-10-13T02:35:17;7.70;99.90
13245;DHT22;6689;53.400;12.486;2022-10-13T02:37:45;7.70;99.90
13245;DHT22;6689;53.400;12.486;2022-10-13T03:00:41;7.80;99.90
13245;DHT22;6689;53.400;12.486;2022-10-13T03:03:11;7.80;99.90
13245;DHT22;6689;53.400;12.486;2022-10-13T03:05:40;7.80;99.90
13245;DHT22;6689;53.400;12.486;2022-10-13T03:08:21;7.80;99.90
13245;DHT22;6689;53.400;12.486;2022-10-13T03:10:50;7.80;99.90
13245;DHT22;6689;53.400;12.486;2022-10-13T03:13:20;7.80;99.90
13245;DHT22;6689;53.400;12.486;2022-10-13T03:18:55;7.80;99.90
13245;DHT22;6689;53.400;12.486;2022-10-13T03:21:37;7.80;99.90
13245;DHT22;6689;53.400;12.486;2022-10-13T03:24:05;7.80;99.90
13245;DHT22;6689;53.400;12.486;2022-10-13T03:26:37;7.80;99.90
13245;DHT22;6689;53.400;12.486;2022-10-13T03:29:05;7.80;99.90
13245;DHT22;6689;53.400;12.486;2022-10-13T03:31:39;7.80;99.90
13245;DHT22;6689;53.400;12.486;2022-10-13T03:39:55;7.80;99.90
13245;DHT22;6689;53.400;12.486;2022-10-13T03:42:26;7.80;99.90
13245;DHT22;6689;53.400;12.486;2022-10-13T03:45:07;7.80;99.90
13245;DHT22;6689;53.400;12.486;2022-10-13T03:47:37;7.80;99.90
13245;DHT22;6689;53.400;12.486;2022-10-13T03:50:17;7.80;99.90
13245;DHT22;6689;53.400;12.486;2022-10-13T03:52:46;7.70;99.90
13245;DHT22;6689;53.400;12.486;2022-10-13T04:03:51;7.70;99.90
13245;DHT22;6689;53.400;12.486;2022-10-13T04:06:32;7.70;99.90
13245;DHT22;6689;53.400;12.486;2022-10-13T04:09:01;7.70;99.90
13245;DHT22;6689;53.400;12.486;2022-10-13T04:11:32;7.70;99.90
13245;DHT22;6689;53.400;12.486;2022-10-13T04:14:13;7.70;99.90
13245;DHT22;6689;53.400;12.486;2022-10-13T04:16:47;7.70;99.90
13245;DHT22;6689;53.400;12.486;2022-10-13T04:22:26;7.70;99.90
13245;DHT22;6689;53.400;12.486;2022-10-13T04:25:01;7.60;99.90
13245;DHT22;6689;53.400;12.486;2022-10-13T04:27:31;7.60;99.90
13245;DHT22;6689;53.400;12.486;2022-10-13T04:30:06;7.60;99.90
13245;DHT22;6689;53.400;12.486;2022-10-13T04:32:48;7.60;99.90
13245;DHT22;6689;53.400;12.486;2022-10-13T04:35:17;7.60;99.90
13245;DHT22;6689;53.400;12.486;2022-10-13T04:38:01;7.60;99.90
13245;DHT22;6689;53.400;12.486;2022-10-13T04:40:36;7.60;99.90
13245;DHT22;6689;53.400;12.486;2022-10-13T04:43:17;7.60;99.90
13245;DHT22;6689;53.400;12.486;2022-10-13T04:45:47;7.50;99.90
13245;DHT22;6689;53.400;12.486;2022-10-13T04:48:17;7.50;99.90
13245;DHT22;6689;53.400;12.486;2022-10-13T04:50:59;7.60;99.90
13245;DHT22;6689;53.400;12.486;2022-10-13T04:53:32;7.60;99.90
13245;DHT22;6689;53.400;12.486;2022-10-13T04:56:02;7.60;99.90
13245;DHT22;6689;53.400;12.486;2022-10-13T04:58:44;7.70;99.90
13245;DHT22;6689;53.400;12.486;2022-10-13T05:01:14;7.70;99.90
13245;DHT22;6689;53.400;12.486;2022-10-13T05:03:42;7.70;99.90
13245;DHT22;6689;53.400;12.486;2022-10-13T05:06:18;7.70;99.90
13245;DHT22;6689;53.400;12.486;2022-10-13T05:09:02;7.70;99.90
13245;DHT22;6689;53.400;12.486;2022-10-13T05:11:33;7.70;99.90
13245;DHT22;6689;53.400;12.486;2022-10-13T05:14:03;7.60;99.90
13245;DHT22;6689;53.400;12.486;2022-10-13T05:16:45;7.70;1.40
13245;DHT22;6689;53.400;12.486;2022-10-13T05:19:27;7.60;1.00
13245;DHT22;6689;53.400;12.486;2022-10-13T05:21:57;7.60;99.90
13245;DHT22;6689;53.400;12.486;2022-10-13T05:27:23;7.60;99.90
13245;DHT22;6689;53.400;12.486;2022-10-13T05:29:54;7.60;99.90
13245;DHT22;6689;53.400;12.486;2022-10-13T05:32:26;7.60;99.90
13245;DHT22;6689;53.400;12.486;2022-10-13T05:35:08;7.50;99.90
13245;DHT22;6689;53.400;12.486;2022-10-13T05:37:39;7.60;99.90
13245;DHT22;6689;53.400;12.486;2022-10-13T05:40:08;7.60;99.90
13245;DHT22;6689;53.400;12.486;2022-10-13T05:42:58;7.60;99.90
13245;DHT22;6689;53.400;12.486;2022-10-13T05:45:28;7.50;1.00
13245;DHT22;6689;53.400;12.486;2022-10-13T05:48:02;7.50;99.90
13245;DHT22;6689;53.400;12.486;2022-10-13T05:50:33;7.50;1.00
13245;DHT22;6689;53.400;12.486;2022-10-13T05:53:15;7.50;1.00
13245;DHT22;6689;53.400;12.486;2022-10-13T05:55:43;7.50;1.00
13245;DHT22;6689;53.400;12.486;2022-10-13T06:01:18;7.50;99.90
13245;DHT22;6689;53.400;12.486;2022-10-13T06:03:48;7.50;1.00
13245;DHT22;6689;53.400;12.486;2022-10-13T06:06:18;7.50;99.90
13245;DHT22;6689;53.400;12.486;2022-10-13T06:09:03;7.60;99.90
13245;DHT22;6689;53.400;12.486;2022-10-13T06:11:45;7.70;1.00
13245;DHT22;6689;53.400;12.486;2022-10-13T06:14:13;7.70;1.00
13245;DHT22;6689;53.400;12.486;2022-10-13T06:16:58;7.80;1.00
13245;DHT22;6689;53.400;12.486;2022-10-13T06:19:28;7.80;1.00
13245;DHT22;6689;53.400;12.486;2022-10-13T06:21:59;7.90;1.00
13245;DHT22;6689;53.400;12.486;2022-10-13T06:24:41;7.90;1.00
13245;DHT22;6689;53.400;12.486;2022-10-13T06:27:14;8.00;1.00
13245;DHT22;6689;53.400;12.486;2022-10-13T06:29:43;8.10;1.00
13245;DHT22;6689;53.400;12.486;2022-10-13T06:35:13;8.10;1.00
13245;DHT22;6689;53.400;12.486;2022-10-13T06:37:44;8.20;1.00
13245;DHT22;6689;53.400;12.486;2022-10-13T06:40:21;8.20;1.00
13245;DHT22;6689;53.400;12.486;2022-10-13T06:43:03;8.30;1.00
13245;DHT22;6689;53.400;12.486;2022-10-13T06:45:45;8.40;1.00
13245;DHT22;6689;53.400;12.486;2022-10-13T06:48:14;8.40;1.00
13245;DHT22;6689;53.400;12.486;2022-10-13T06:50:58;8.50;1.00
13245;DHT22;6689;53.400;12.486;2022-10-13T06:53:28;8.50;1.00
13245;DHT22;6689;53.400;12.486;2022-10-13T06:56:04;8.60;1.00
13245;DHT22;6689;53.400;12.486;2022-10-13T06:58:45;8.60;1.00
13245;DHT22;6689;53.400;12.486;2022-10-13T07:01:14;8.60;1.00
13245;DHT22;6689;53.400;12.486;2022-10-13T07:03:46;8.70;1.00
13245;DHT22;6689;53.400;12.486;2022-10-13T07:06:19;8.70;1.00
13245;DHT22;6689;53.400;12.486;2022-10-13T07:08:50;8.70;1.00
13245;DHT22;6689;53.400;12.486;2022-10-13T07:11:32;8.80;1.00
13245;DHT22;6689;53.400;12.486;2022-10-13T07:14:14;9.10;1.00
13245;DHT22;6689;53.400;12.486;2022-10-13T07:16:56;9.30;1.00
13245;DHT22;6689;53.400;12.486;2022-10-13T07:19:23;9.40;99.90
13245;DHT22;6689;53.400;12.486;2022-10-13T07:22:10;9.70;99.90
13245;DHT22;6689;53.400;12.486;2022-10-13T07:24:40;10.10;99.90
13245;DHT22;6689;53.400;12.486;2022-10-13T07:27:21;11.30;99.90
13245;DHT22;6689;53.400;12.486;2022-10-13T07:29:49;12.80;99.90
13245;DHT22;6689;53.400;12.486;2022-10-13T07:32:30;13.30;99.90
13245;DHT22;6689;53.400;12.486;2022-10-13T07:35:12;14.20;99.90
13245;DHT22;6689;53.400;12.486;2022-10-13T07:46:13;18.10;1.00
13245;DHT22;6689;53.400;12.486;2022-10-13T07:48:44;15.40;7.20
13245;DHT22;6689;53.400;12.486;2022-10-13T07:51:19;14.20;53.60
13245;DHT22;6689;53.400;12.486;2022-10-13T07:53:48;13.20;99.90
13245;DHT22;6689;53.400;12.486;2022-10-13T07:56:19;12.60;99.90
13245;DHT22;6689;53.400;12.486;2022-10-13T07:58:49;12.30;99.90
13245;DHT22;6689;53.400;12.486;2022-10-13T08:01:21;12.50;99.90
13245;DHT22;6689;53.400;12.486;2022-10-13T08:04:02;12.30;99.90
13245;DHT22;6689;53.400;12.486;2022-10-13T08:06:43;11.90;99.90
13245;DHT22;6689;53.400;12.486;2022-10-13T08:09:25;12.20;99.90
13245;DHT22;6689;53.400;12.486;2022-10-13T08:12:00;13.00;99.90
13245;DHT22;6689;53.400;12.486;2022-10-13T08:14:30;13.60;99.90
13245;DHT22;6689;53.400;12.486;2022-10-13T08:20:00;14.30;99.90
13245;DHT22;6689;53.400;12.486;2022-10-13T08:22:28;14.40;99.90
13245;DHT22;6689;53.400;12.486;2022-10-13T08:24:55;14.10;99.90
13245;DHT22;6689;53.400;12.486;2022-10-13T08:27:25;13.40;99.90
13245;DHT22;6689;53.400;12.486;2022-10-13T08:29:55;13.30;99.90
13245;DHT22;6689;53.400;12.486;2022-10-13T08:32:36;12.80;99.90
13245;DHT22;6689;53.400;12.486;2022-10-13T08:37:55;12.10;99.90
13245;DHT22;6689;53.400;12.486;2022-10-13T08:40:30;12.00;99.90
13245;DHT22;6689;53.400;12.486;2022-10-13T08:43:11;11.80;99.90
13245;DHT22;6689;53.400;12.486;2022-10-13T08:45:40;11.70;99.90
13245;DHT22;6689;53.400;12.486;2022-10-13T08:48:10;11.70;99.90
13245;DHT22;6689;53.400;12.486;2022-10-13T08:50:54;11.60;99.90
13245;DHT22;6689;53.400;12.486;2022-10-13T08:53:40;11.60;99.90
13245;DHT22;6689;53.400;12.486;2022-10-13T08:56:13;11.60;99.90
13245;DHT22;6689;53.400;12.486;2022-10-13T08:58:41;11.70;99.90
13245;DHT22;6689;53.400;12.486;2022-10-13T09:01:11;11.70;99.90
13245;DHT22;6689;53.400;12.486;2022-10-13T09:03:48;11.80;99.90
13245;DHT22;6689;53.400;12.486;2022-10-13T09:06:31;11.90;99.90
13245;DHT22;6689;53.400;12.486;2022-10-13T09:09:16;12.20;99.90
13245;DHT22;6689;53.400;12.486;2022-10-13T09:11:57;12.00;99.90
13245;DHT22;6689;53.400;12.486;2022-10-13T09:14:39;12.20;99.90
13245;DHT22;6689;53.400;12.486;2022-10-13T09:17:11;12.20;99.90
13245;DHT22;6689;53.400;12.486;2022-10-13T09:19:56;12.30;99.90
13245;DHT22;6689;53.400;12.486;2022-10-13T09:22:37;12.30;99.90
13245;DHT22;6689;53.400;12.486;2022-10-13T09:25:21;12.40;99.90
13245;DHT22;6689;53.400;12.486;2022-10-13T09:27:51;12.30;99.90
13245;DHT22;6689;53.400;12.486;2022-10-13T09:30:32;12.40;99.90
13245;DHT22;6689;53.400;12.486;2022-10-13T09:33:20;12.40;99.90
13245;DHT22;6689;53.400;12.486;2022-10-13T09:36:06;12.50;99.90
13245;DHT22;6689;53.400;12.486;2022-10-13T09:38:35;12.50;99.90
13245;DHT22;6689;53.400;12.486;2022-10-13T09:41:11;12.60;99.90
13245;DHT22;6689;53.400;12.486;2022-10-13T09:43:41;12.70;99.90
13245;DHT22;6689;53.400;12.486;2022-10-13T09:46:12;12.70;99.90
13245;DHT22;6689;53.400;12.486;2022-10-13T09:48:58;12.70;99.90
13245;DHT22;6689;53.400;12.486;2022-10-13T09:51:29;12.80;99.90
13245;DHT22;6689;53.400;12.486;2022-10-13T09:54:02;12.90;99.90
13245;DHT22;6689;53.400;12.486;2022-10-13T09:56:36;13.00;99.90
13245;DHT22;6689;53.400;12.486;2022-10-13T09:59:09;13.10;99.90
13245;DHT22;6689;53.400;12.486;2022-10-13T10:01:52;13.20;99.90
13245;DHT22;6689;53.400;12.486;2022-10-13T10:04:23;13.40;99.90
13245;DHT22;6689;53.400;12.486;2022-10-13T10:06:50;13.50;99.90
13245;DHT22;6689;53.400;12.486;2022-10-13T10:09:31;13.60;99.90
13245;DHT22;6689;53.400;12.486;2022-10-13T10:12:08;13.70;99.90
13245;DHT22;6689;53.400;12.486;2022-10-13T10:14:52;13.70;99.90
13245;DHT22;6689;53.400;12.486;2022-10-13T10:17:22;13.80;99.90
13245;DHT22;6689;53.400;12.486;2022-10-13T10:20:11;13.80;99.90
13245;DHT22;6689;53.400;12.486;2022-10-13T10:22:55;13.80;99.90
13245;DHT22;6689;53.400;12.486;2022-10-13T10:25:28;13.80;99.90
13245;DHT22;6689;53.400;12.486;2022-10-13T10:28:14;13.80;99.90
13245;DHT22;6689;53.400;12.486;2022-10-13T10:30:48;13.90;99.90
13245;DHT22;6689;53.400;12.486;2022-10-13T10:33:33;13.90;99.90
13245;DHT22;6689;53.400;12.486;2022-10-13T10:36:13;13.90;99.90
13245;DHT22;6689;53.400;12.486;2022-10-13T10:38:47;14.00;99.90
13245;DHT22;6689;53.400;12.486;2022-10-13T10:41:34;14.00;99.90
13245;DHT22;6689;53.400;12.486;2022-10-13T10:44:22;14.00;99.90
13245;DHT22;6689;53.400;12.486;2022-10-13T10:46:53;14.00;99.90
13245;DHT22;6689;53.400;12.486;2022-10-13T10:49:27;14.10;99.90
13245;DHT22;6689;53.400;12.486;2022-10-13T10:52:09;14.00;99.90
13245;DHT22;6689;53.400;12.486;2022-10-13T10:54:50;14.00;99.90
13245;DHT22;6689;53.400;12.486;2022-10-13T10:57:27;14.10;99.90
13245;DHT22;6689;53.400;12.486;2022-10-13T11:02:54;14.00;99.90
13245;DHT22;6689;53.400;12.486;2022-10-13T11:05:30;14.00;99.90
13245;DHT22;6689;53.400;12.486;2022-10-13T11:08:24;14.10;99.90
13245;DHT22;6689;53.400;12.486;2022-10-13T11:13:53;14.30;99.90
13245;DHT22;6689;53.400;12.486;2022-10-13T11:16:25;14.30;99.90
13245;DHT22;6689;53.400;12.486;2022-10-13T11:27:22;14.50;99.90
13245;DHT22;6689;53.400;12.486;2022-10-13T11:30:04;14.60;99.90
13245;DHT22;6689;53.400;12.486;2022-10-13T11:32:40;14.60;99.90
13245;DHT22;6689;53.400;12.486;2022-10-13T11:35:20;14.60;99.90
13245;DHT22;6689;53.400;12.486;2022-10-13T11:37:51;14.70;99.90
13245;DHT22;6689;53.400;12.486;2022-10-13T11:40:34;14.70;99.90
13245;DHT22;6689;53.400;12.486;2022-10-13T11:46:18;14.80;99.90
13245;DHT22;6689;53.400;12.486;2022-10-13T11:49:09;14.90;99.90
13245;DHT22;6689;53.400;12.486;2022-10-13T11:51:43;14.90;99.90
13245;DHT22;6689;53.400;12.486;2022-10-13T11:54:29;14.90;99.90
13245;DHT22;6689;53.400;12.486;2022-10-13T11:57:15;15.10;99.90
13245;DHT22;6689;53.400;12.486;2022-10-13T11:59:44;15.10;99.90
13245;DHT22;6689;53.400;12.486;2022-10-13T12:02:18;15.30;99.90
13245;DHT22;6689;53.400;12.486;2022-10-13T12:05:00;15.30;99.90
13245;DHT22;6689;53.400;12.486;2022-10-13T12:07:30;15.40;99.90
13245;DHT22;6689;53.400;12.486;2022-10-13T12:10:15;15.30;99.90
13245;DHT22;6689;53.400;12.486;2022-10-13T12:12:48;15.30;99.90
13245;DHT22;6689;53.400;12.486;2022-10-13T12:15:26;15.30;99.90
13245;DHT22;6689;53.400;12.486;2022-10-13T12:21:03;15.40;99.90
13245;DHT22;6689;53.400;12.486;2022-10-13T12:23:34;15.50;99.90
13245;DHT22;6689;53.400;12.486;2022-10-13T12:26:15;15.50;99.90
13245;DHT22;6689;53.400;12.486;2022-10-13T12:28:47;15.50;99.90
13245;DHT22;6689;53.400;12.486;2022-10-13T12:31:28;15.50;99.90
13245;DHT22;6689;53.400;12.486;2022-10-13T12:33:59;15.50;99.90
13245;DHT22;6689;53.400;12.486;2022-10-13T12:36:42;15.50;99.90
13245;DHT22;6689;53.400;12.486;2022-10-13T12:39:14;15.50;99.90
13245;DHT22;6689;53.400;12.486;2022-10-13T12:41:44;15.50;99.90
13245;DHT22;6689;53.400;12.486;2022-10-13T12:44:15;15.50;99.90
13245;DHT22;6689;53.400;12.486;2022-10-13T12:46:52;15.40;99.90
13245;DHT22;6689;53.400;12.486;2022-10-13T12:49:21;15.40;99.90
13245;DHT22;6689;53.400;12.486;2022-10-13T12:52:03;15.40;99.90
13245;DHT22;6689;53.400;12.486;2022-10-13T12:54:45;15.40;99.90
13245;DHT22;6689;53.400;12.486;2022-10-13T12:57:14;15.40;99.90
13245;DHT22;6689;53.400;12.486;2022-10-13T12:59:43;15.40;99.90
13245;DHT22;6689;53.400;12.486;2022-10-13T13:02:26;15.40;99.90
13245;DHT22;6689;53.400;12.486;2022-10-13T13:10:54;15.50;99.90
13245;DHT22;6689;53.400;12.486;2022-10-13T13:13:23;15.60;99.90
13245;DHT22;6689;53.400;12.486;2022-10-13T13:16:11;15.60;99.90
13245;DHT22;6689;53.400;12.486;2022-10-13T13:18:53;15.70;99.90
13245;DHT22;6689;53.400;12.486;2022-10-13T13:21:34;15.70;99.90
13245;DHT22;6689;53.400;12.486;2022-10-13T13:24:04;15.80;99.90
13245;DHT22;6689;53.400;12.486;2022-10-13T13:29:43;15.70;99.90
13245;DHT22;6689;53.400;12.486;2022-10-13T13:32:14;15.80;99.90
13245;DHT22;6689;53.400;12.486;2022-10-13T13:34:56;15.90;99.90
13245;DHT22;6689;53.400;12.486;2022-10-13T13:37:25;15.80;99.90
13245;DHT22;6689;53.400;12.486;2022-10-13T13:39:58;15.80;99.90
13245;DHT22;6689;53.400;12.486;2022-10-13T13:42:29;15.80;99.90
13245;DHT22;6689;53.400;12.486;2022-10-13T13:45:05;15.80;99.90
13245;DHT22;6689;53.400;12.486;2022-10-13T13:47:46;15.80;99.90
13245;DHT22;6689;53.400;12.486;2022-10-13T13:50:15;15.70;99.90
13245;DHT22;6689;53.400;12.486;2022-10-13T13:52:57;15.70;99.90
13245;DHT22;6689;53.400;12.486;2022-10-13T13:55:26;15.70;99.90
13245;DHT22;6689;53.400;12.486;2022-10-13T13:57:54;15.70;99.90
13245;DHT22;6689;53.400;12.486;2022-10-13T14:00:34;15.70;99.90
13245;DHT22;6689;53.400;12.486;2022-10-13T14:03:03;15.70;99.90
13245;DHT22;6689;53.400;12.486;2022-10-13T14:05:44;15.70;99.90
13245;DHT22;6689;53.400;12.486;2022-10-13T14:08:28;15.70;99.90
13245;DHT22;6689;53.400;12.486;2022-10-13T14:10:59;15.70;99.90
13245;DHT22;6689;53.400;12.486;2022-10-13T14:13:40;15.70;99.90
13245;DHT22;6689;53.400;12.486;2022-10-13T14:16:10;15.60;99.90
13245;DHT22;6689;53.400;12.486;2022-10-13T14:18:42;15.70;99.90
13245;DHT22;6689;53.400;12.486;2022-10-13T14:21:23;15.60;99.90
13245;DHT22;6689;53.400;12.486;2022-10-13T14:23:54;15.60;99.90
13245;DHT22;6689;53.400;12.486;2022-10-13T14:26:35;15.60;99.90
13245;DHT22;6689;53.400;12.486;2022-10-13T14:29:04;15.50;99.90
13245;DHT22;6689;53.400;12.486;2022-10-13T14:31:40;15.60;99.90
13245;DHT22;6689;53.400;12.486;2022-10-13T14:34:09;15.60;99.90
13245;DHT22;6689;53.400;12.486;2022-10-13T14:36:45;15.50;99.90
13245;DHT22;6689;53.400;12.486;2022-10-13T14:39:17;15.60;99.90
13245;DHT22;6689;53.400;12.486;2022-10-13T14:41:59;15.50;99.90
13245;DHT22;6689;53.400;12.486;2022-10-13T14:44:29;15.50;99.90
13245;DHT22;6689;53.400;12.486;2022-10-13T14:47:05;15.40;99.90
13245;DHT22;6689;53.400;12.486;2022-10-13T14:49:48;15.40;99.90
13245;DHT22;6689;53.400;12.486;2022-10-13T14:52:29;15.40;99.90
13245;DHT22;6689;53.400;12.486;2022-10-13T14:55:00;15.40;99.90
13245;DHT22;6689;53.400;12.486;2022-10-13T14:57:56;15.40;99.90
13245;DHT22;6689;53.400;12.486;2022-10-13T15:00:24;15.30;99.90
13245;DHT22;6689;53.400;12.486;2022-10-13T15:03:00;15.30;99.90
13245;DHT22;6689;53.400;12.486;2022-10-13T15:05:33;15.30;99.90
13245;DHT22;6689;53.400;12.486;2022-10-13T15:08:01;15.30;99.90
13245;DHT22;6689;53.400;12.486;2022-10-13T15:10:32;15.30;99.90
13245;DHT22;6689;53.400;12.486;2022-10-13T15:13:00;15.30;99.90
13245;DHT22;6689;53.400;12.486;2022-10-13T15:15:32;15.20;99.90
13245;DHT22;6689;53.400;12.486;2022-10-13T15:18:10;15.20;99.90
13245;DHT22;6689;53.400;12.486;2022-10-13T15:20:51;15.20;99.90
13245;DHT22;6689;53.400;12.486;2022-10-13T15:23:20;15.20;99.90
13245;DHT22;6689;53.400;12.486;2022-10-13T15:26:02;15.20;99.90
13245;DHT22;6689;53.400;12.486;2022-10-13T15:28:33;15.20;99.90
13245;DHT22;6689;53.400;12.486;2022-10-13T15:31:06;15.20;99.90
13245;DHT22;6689;53.400;12.486;2022-10-13T15:33:35;15.20;99.90
13245;DHT22;6689;53.400;12.486;2022-10-13T15:36:16;15.20;99.90
13245;DHT22;6689;53.400;12.486;2022-10-13T15:38:44;15.20;99.90
13245;DHT22;6689;53.400;12.486;2022-10-13T15:41:24;15.20;99.90
13245;DHT22;6689;53.400;12.486;2022-10-13T15:44:05;15.20;99.90
13245;DHT22;6689;53.400;12.486;2022-10-13T15:46:37;15.10;99.90
13245;DHT22;6689;53.400;12.486;2022-10-13T15:51:54;15.10;99.90
13245;DHT22;6689;53.400;12.486;2022-10-13T15:54:26;15.00;99.90
13245;DHT22;6689;53.400;12.486;2022-10-13T15:56:55;15.00;99.90
13245;DHT22;6689;53.400;12.486;2022-10-13T15:59:37;15.00;99.90
13245;DHT22;6689;53.400;12.486;2022-10-13T16:02:04;15.00;99.90
13245;DHT22;6689;53.400;12.486;2022-10-13T16:04:32;15.00;99.90
13245;DHT22;6689;53.400;12.486;2022-10-13T16:07:15;14.90;99.90
13245;DHT22;6689;53.400;12.486;2022-10-13T16:09:46;14.90;99.90
13245;DHT22;6689;53.400;12.486;2022-10-13T16:12:26;14.90;99.90
13245;DHT22;6689;53.400;12.486;2022-10-13T16:14:56;14.90;99.90
13245;DHT22;6689;53.400;12.486;2022-10-13T16:17:27;14.80;99.90
13245;DHT22;6689;53.400;12.486;2022-10-13T16:20:09;14.80;99.90
13245;DHT22;6689;53.400;12.486;2022-10-13T16:22:56;14.80;99.90
13245;DHT22;6689;53.400;12.486;2022-10-13T16:25:26;14.70;99.90
13245;DHT22;6689;53.400;12.486;2022-10-13T16:28:01;14.70;99.90
13245;DHT22;6689;53.400;12.486;2022-10-13T16:30:42;14.60;99.90
13245;DHT22;6689;53.400;12.486;2022-10-13T16:33:10;14.60;99.90
13245;DHT22;6689;53.400;12.486;2022-10-13T16:35:44;14.60;99.90
13245;DHT22;6689;53.400;12.486;2022-10-13T16:41:26;14.50;99.90
13245;DHT22;6689;53.400;12.486;2022-10-13T16:44:08;14.50;99.90
13245;DHT22;6689;53.400;12.486;2022-10-13T16:46:36;14.40;99.90
13245;DHT22;6689;53.400;12.486;2022-10-13T16:49:14;14.40;99.90
13245;DHT22;6689;53.400;12.486;2022-10-13T16:51:41;14.30;99.90
13245;DHT22;6689;53.400;12.486;2022-10-13T16:54:10;14.30;99.90
13245;DHT22;6689;53.400;12.486;2022-10-13T17:02:32;14.20;99.90
13245;DHT22;6689;53.400;12.486;2022-10-13T17:05:00;14.10;99.90
13245;DHT22;6689;53.400;12.486;2022-10-13T17:07:36;14.00;99.90
13245;DHT22;6689;53.400;12.486;2022-10-13T17:10:17;13.90;99.90
13245;DHT22;6689;53.400;12.486;2022-10-13T17:12:46;14.00;99.90
13245;DHT22;6689;53.400;12.486;2022-10-13T17:15:22;13.90;99.90
13245;DHT22;6689;53.400;12.486;2022-10-13T17:29:18;13.60;99.90
13245;DHT22;6689;53.400;12.486;2022-10-13T17:31:59;13.60;99.90
13245;DHT22;6689;53.400;12.486;2022-10-13T17:34:41;13.60;99.90
13245;DHT22;6689;53.400;12.486;2022-10-13T17:37:14;13.50;99.90
13245;DHT22;6689;53.400;12.486;2022-10-13T17:39:46;13.50;99.90
13245;DHT22;6689;53.400;12.486;2022-10-13T17:42:18;13.40;99.90
13245;DHT22;6689;53.400;12.486;2022-10-13T17:44:53;13.40;99.90
13245;DHT22;6689;53.400;12.486;2022-10-13T17:47:22;13.30;99.90
13245;DHT22;6689;53.400;12.486;2022-10-13T17:50:04;13.30;99.90
13245;DHT22;6689;53.400;12.486;2022-10-13T17:52:32;13.20;99.90
13245;DHT22;6689;53.400;12.486;2022-10-13T17:55:00;13.20;99.90
13245;DHT22;6689;53.400;12.486;2022-10-13T17:57:36;13.20;99.90
13245;DHT22;6689;53.400;12.486;2022-10-13T18:00:23;13.20;99.90
13245;DHT22;6689;53.400;12.486;2022-10-13T18:02:52;13.10;99.90
13245;DHT22;6689;53.400;12.486;2022-10-13T18:05:23;13.10;99.90
13245;DHT22;6689;53.400;12.486;2022-10-13T18:08:05;13.00;99.90
13245;DHT22;6689;53.400;12.486;2022-10-13T18:10:34;13.00;99.90
13245;DHT22;6689;53.400;12.486;2022-10-13T18:13:16;13.00;99.90
13245;DHT22;6689;53.400;12.486;2022-10-13T18:15:51;13.00;99.90
13245;DHT22;6689;53.400;12.486;2022-10-13T18:18:32;12.90;99.90
13245;DHT22;6689;53.400;12.486;2022-10-13T18:21:04;12.90;99.90
13245;DHT22;6689;53.400;12.486;2022-10-13T18:23:32;12.90;99.90
13245;DHT22;6689;53.400;12.486;2022-10-13T18:26:05;12.90;99.90
13245;DHT22;6689;53.400;12.486;2022-10-13T18:28:34;12.90;99.90
13245;DHT22;6689;53.400;12.486;2022-10-13T18:34:02;12.90;99.90
13245;DHT22;6689;53.400;12.486;2022-10-13T18:36:44;12.90;99.90
13245;DHT22;6689;53.400;12.486;2022-10-13T18:39:13;12.90;99.90
13245;DHT22;6689;53.400;12.486;2022-10-13T18:41:55;12.90;99.90